createdAt,value
2022-10-09T00:01:29.715Z,20.20
2022-10-09T00:04:00.062Z,22.13
2022-10-09T00:06:31.081Z,17.55
2022-10-09T00:09:01.934Z,22.58
2022-10-09T00:11:33.466Z,18.83
2022-10-09T00:14:02.799Z,21.65
2022-10-09T00:16:31.480Z,14.98
2022-10-09T00:19:01.024Z,18.05
2022-10-09T00:21:32.059Z,24.05
2022-10-09T00:24:03.483Z,17.98
2022-10-09T00:26:31.996Z,21.50
2022-10-09T00:29:00.395Z,19.88
2022-10-09T00:31:29.099Z,26.50
2022-10-09T00:33:57.386Z,24.88
2022-10-09T00:36:28.319Z,24.73
2022-10-09T00:38:57.605Z,23.23
2022-10-09T00:41:28.915Z,21.40
2022-10-09T00:43:59.992Z,25.45
2022-10-09T00:46:37.728Z,20.55
2022-10-09T00:49:26.797Z,22.67
2022-10-09T00:52:01.070Z,41.88
2022-10-09T00:54:34.519Z,26.85
2022-10-09T00:57:03.377Z,23.40
2022-10-09T00:59:32.734Z,28.50
2022-10-09T01:02:00.933Z,23.58
2022-10-09T01:04:29.205Z,30.50
2022-10-09T01:07:18.895Z,24.77
2022-10-09T01:09:58.079Z,18.77
2022-10-09T01:12:41.089Z,20.23
2022-10-09T01:15:18.759Z,21.23
2022-10-09T01:17:57.184Z,22.50
2022-10-09T01:20:48.759Z,18.98
2022-10-09T01:23:47.894Z,22.63
2022-10-09T01:26:57.885Z,19.63
2022-10-09T01:29:33.076Z,21.10
2022-10-09T01:32:03.666Z,26.02
2022-10-09T01:34:34.077Z,27.00
2022-10-09T01:37:04.778Z,29.75
2022-10-09T01:39:36.282Z,19.55
2022-10-09T01:42:06.795Z,24.65
2022-10-09T01:44:35.575Z,28.05
2022-10-09T01:47:04.617Z,23.52
2022-10-09T01:49:48.373Z,20.73
2022-10-09T01:52:39.147Z,23.45
2022-10-09T01:55:26.648Z,28.52
2022-10-09T01:58:05.360Z,24.15
2022-10-09T02:00:40.591Z,24.88
2022-10-09T02:03:14.638Z,27.75
2022-10-09T02:05:46.829Z,21.85
2022-10-09T02:08:20.207Z,27.17
2022-10-09T02:10:52.798Z,25.23
2022-10-09T02:13:25.055Z,27.10
2022-10-09T02:16:02.025Z,22.55
2022-10-09T02:18:39.138Z,35.70
2022-10-09T02:23:46.281Z,24.80
2022-10-09T02:26:15.217Z,27.55
2022-10-09T02:28:46.228Z,22.83
2022-10-09T02:31:23.972Z,29.95
2022-10-09T02:33:57.336Z,30.42
2022-10-09T02:36:25.751Z,31.63
2022-10-09T02:38:56.419Z,34.42
2022-10-09T02:41:25.608Z,31.88
2022-10-09T02:43:55.367Z,27.92
2022-10-09T02:46:24.473Z,27.98
2022-10-09T02:48:52.799Z,30.58
2022-10-09T02:51:21.150Z,31.55
2022-10-09T02:53:49.295Z,24.95
2022-10-09T02:56:17.336Z,28.95
2022-10-09T02:58:45.351Z,32.17
2022-10-09T03:01:15.254Z,29.23
2022-10-09T03:03:43.633Z,33.30
2022-10-09T03:06:15.356Z,25.15
2022-10-09T03:08:46.850Z,29.10
2022-10-09T03:11:17.532Z,28.92
2022-10-09T03:13:46.460Z,22.20
2022-10-09T03:16:18.719Z,23.55
2022-10-09T03:18:47.966Z,21.02
2022-10-09T03:21:19.077Z,23.20
2022-10-09T03:23:48.009Z,26.73
2022-10-09T03:26:18.868Z,30.13
2022-10-09T03:28:49.956Z,32.97
2022-10-09T03:31:46.941Z,27.20
2022-10-09T03:34:11.892Z,29.52
2022-10-09T03:36:40.106Z,28.15
2022-10-09T03:39:08.148Z,23.13
2022-10-09T03:41:36.399Z,35.70
2022-10-09T03:44:04.578Z,24.60
2022-10-09T03:46:34.072Z,26.45
2022-10-09T03:49:02.478Z,27.70
2022-10-09T03:51:30.839Z,31.63
2022-10-09T03:53:58.903Z,27.95
2022-10-09T03:56:26.925Z,34.63
2022-10-09T03:58:54.970Z,23.20
2022-10-09T04:01:23.067Z,29.23
2022-10-09T04:03:52.598Z,23.67
2022-10-09T04:06:20.570Z,29.15
2022-10-09T04:08:48.638Z,31.83
2022-10-09T04:11:16.675Z,29.85
2022-10-09T04:13:44.883Z,29.77
2022-10-09T04:16:13.086Z,22.13
2022-10-09T04:18:43.077Z,27.15
2022-10-09T04:21:13.413Z,30.55
2022-10-09T04:23:41.787Z,29.92
2022-10-09T04:26:13.748Z,29.70
2022-10-09T04:28:41.828Z,25.30
2022-10-09T04:31:10.131Z,26.80
2022-10-09T04:33:38.440Z,26.27
2022-10-09T04:36:07.043Z,25.45
2022-10-09T04:38:36.568Z,25.38
2022-10-09T04:41:07.775Z,23.98
2022-10-09T04:43:36.971Z,28.85
2022-10-09T04:46:07.141Z,29.13
2022-10-09T04:48:39.419Z,28.75
2022-10-09T04:51:08.721Z,36.80
2022-10-09T04:53:39.955Z,24.77
2022-10-09T04:56:11.175Z,22.25
2022-10-09T04:58:40.669Z,25.85
2022-10-09T05:01:12.102Z,27.92
2022-10-09T05:03:40.341Z,24.23
2022-10-09T05:06:11.935Z,25.80
2022-10-09T05:08:43.060Z,25.35
2022-10-09T05:11:15.131Z,26.10
2022-10-09T05:13:46.771Z,22.90
2022-10-09T05:16:18.307Z,21.52
2022-10-09T05:18:49.069Z,29.13
2022-10-09T05:21:18.172Z,22.58
2022-10-09T05:23:48.696Z,25.17
2022-10-09T05:26:20.421Z,23.73
2022-10-09T05:28:49.181Z,24.42
2022-10-09T05:31:22.287Z,28.20
2022-10-09T05:33:51.330Z,24.08
2022-10-09T05:36:20.461Z,30.50
2022-10-09T05:38:50.569Z,31.55
2022-10-09T05:41:20.053Z,30.73
2022-10-09T05:43:50.646Z,20.13
2022-10-09T05:46:23.341Z,25.25
2022-10-09T05:48:55.452Z,18.67
2022-10-09T05:51:25.818Z,36.58
2022-10-09T05:53:56.623Z,23.02
2022-10-09T05:56:27.534Z,24.35
2022-10-09T05:58:58.507Z,19.25
2022-10-09T06:01:29.323Z,21.50
2022-10-09T06:04:00.409Z,21.73
2022-10-09T06:06:32.220Z,19.88
2022-10-09T06:09:02.843Z,23.50
2022-10-09T06:11:33.800Z,19.25
2022-10-09T06:14:05.153Z,27.10
2022-10-09T06:16:35.712Z,22.30
2022-10-09T06:19:06.001Z,28.63
2022-10-09T06:21:35.506Z,19.20
2022-10-09T06:24:06.873Z,19.25
2022-10-09T06:26:35.980Z,22.27
2022-10-09T06:29:04.448Z,18.25
2022-10-09T06:31:34.393Z,17.13
2022-10-09T06:34:04.845Z,25.08
2022-10-09T06:36:36.367Z,18.52
2022-10-09T06:39:08.595Z,25.55
2022-10-09T06:41:37.303Z,17.15
2022-10-09T06:44:11.746Z,25.35
2022-10-09T06:46:42.871Z,19.67
2022-10-09T06:49:12.670Z,21.13
2022-10-09T06:51:41.905Z,20.77
2022-10-09T06:54:16.522Z,20.08
2022-10-09T06:56:45.754Z,16.92
2022-10-09T06:59:14.144Z,22.02
2022-10-09T07:01:42.681Z,17.42
2022-10-09T07:04:15.242Z,15.80
2022-10-09T07:07:15.423Z,12.18
2022-10-09T07:09:50.692Z,18.65
2022-10-09T07:12:21.429Z,19.27
2022-10-09T07:14:54.761Z,18.30
2022-10-09T07:17:23.003Z,13.18
2022-10-09T07:19:51.250Z,18.13
2022-10-09T07:22:42.570Z,13.10
2022-10-09T07:25:14.172Z,10.75
2022-10-09T07:27:47.693Z,16.83
2022-10-09T07:30:16.038Z,10.15
2022-10-09T07:32:44.413Z,10.07
2022-10-09T07:35:12.474Z,9.38
2022-10-09T07:37:40.502Z,9.00
2022-10-09T07:40:09.612Z,5.75
2022-10-09T07:42:39.028Z,4.43
2022-10-09T07:45:08.302Z,4.18
2022-10-09T07:47:36.465Z,3.25
2022-10-09T07:50:05.029Z,2.95
2022-10-09T07:52:33.233Z,6.10
2022-10-09T07:55:01.442Z,2.50
2022-10-09T07:57:30.339Z,3.50
2022-10-09T07:59:59.875Z,5.72
2022-10-09T08:02:28.133Z,4.00
2022-10-09T08:04:56.248Z,3.47
2022-10-09T08:07:24.487Z,1.77
2022-10-09T08:09:53.564Z,5.40
2022-10-09T08:12:21.749Z,2.58
2022-10-09T08:14:49.926Z,7.10
2022-10-09T08:17:19.535Z,3.15
2022-10-09T08:19:48.032Z,5.28
2022-10-09T08:22:16.222Z,1.88
2022-10-09T08:24:44.456Z,5.07
2022-10-09T08:27:12.544Z,4.07
2022-10-09T08:29:40.754Z,2.38
2022-10-09T08:32:08.928Z,2.35
2022-10-09T08:34:38.493Z,4.32
2022-10-09T08:37:06.760Z,4.15
2022-10-09T08:39:45.640Z,3.95
2022-10-09T08:43:03.681Z,1.80
2022-10-09T08:49:23.239Z,5.60
2022-10-09T08:51:54.330Z,4.88
2022-10-09T08:54:34.365Z,4.22
2022-10-09T08:57:12.112Z,4.00
2022-10-09T08:59:45.081Z,2.08
2022-10-09T09:02:49.629Z,2.47
2022-10-09T09:05:37.884Z,4.13
2022-10-09T09:08:26.965Z,5.68
2022-10-09T09:11:21.262Z,3.72
2022-10-09T09:14:03.547Z,2.67
2022-10-09T09:16:44.601Z,1.35
2022-10-09T09:19:39.401Z,3.00
2022-10-09T09:22:21.756Z,3.28
2022-10-09T09:24:57.687Z,3.70
2022-10-09T09:27:33.788Z,7.25
2022-10-09T09:30:31.399Z,3.10
2022-10-09T09:33:14.843Z,1.33
2022-10-09T09:35:53.335Z,1.20
2022-10-09T09:38:24.378Z,1.98
2022-10-09T09:40:55.067Z,4.47
2022-10-09T09:43:27.383Z,3.72
2022-10-09T09:46:04.317Z,10.43
2022-10-09T09:48:38.620Z,4.25
2022-10-09T09:51:27.851Z,3.17
2022-10-09T09:54:00.197Z,8.60
2022-10-09T09:57:06.988Z,2.97
2022-10-09T09:59:34.241Z,2.20
2022-10-09T10:02:12.399Z,3.17
2022-10-09T10:04:52.323Z,5.97
2022-10-09T10:07:32.252Z,6.22
2022-10-09T10:10:07.447Z,2.35
2022-10-09T10:12:42.817Z,2.47
2022-10-09T10:15:30.755Z,4.95
2022-10-09T10:18:03.127Z,3.55
2022-10-09T10:20:45.265Z,3.80
2022-10-09T10:23:32.508Z,2.92
2022-10-09T10:26:07.817Z,2.22
2022-10-09T10:29:04.973Z,1.80
2022-10-09T10:31:47.520Z,2.47
2022-10-09T10:34:28.282Z,4.40
2022-10-09T10:37:07.234Z,7.18
2022-10-09T10:39:44.961Z,3.72
2022-10-09T10:42:23.627Z,2.67
2022-10-09T10:45:04.593Z,5.22
2022-10-09T10:47:42.492Z,2.80
2022-10-09T10:50:17.346Z,2.63
2022-10-09T10:53:08.532Z,1.38
2022-10-09T10:55:52.006Z,5.82
2022-10-09T10:58:31.366Z,3.13
2022-10-09T11:01:26.681Z,6.30
2022-10-09T11:04:28.288Z,1.45
2022-10-09T11:07:11.078Z,1.92
2022-10-09T11:09:53.192Z,2.53
2022-10-09T11:12:47.272Z,1.00
2022-10-09T11:15:31.625Z,4.25
2022-10-09T11:18:23.431Z,4.78
2022-10-09T11:21:13.991Z,2.88
2022-10-09T11:24:17.457Z,2.53
2022-10-09T11:27:02.384Z,3.50
2022-10-09T11:29:39.808Z,2.42
2022-10-09T11:32:19.538Z,3.85
2022-10-09T11:34:59.686Z,2.25
2022-10-09T11:37:35.119Z,1.63
2022-10-09T11:40:14.558Z,3.47
2022-10-09T11:42:43.211Z,1.42
2022-10-09T11:45:27.748Z,1.92
2022-10-09T11:48:08.517Z,2.25
2022-10-09T11:50:54.802Z,2.70
2022-10-09T11:53:26.839Z,1.70
2022-10-09T11:56:06.474Z,5.45
2022-10-09T11:58:35.293Z,2.40
2022-10-09T12:01:24.386Z,2.50
2022-10-09T12:04:05.824Z,2.05
2022-10-09T12:06:48.503Z,5.32
2022-10-09T12:09:35.524Z,4.18
2022-10-09T12:12:07.436Z,2.63
2022-10-09T12:14:40.313Z,5.18
2022-10-09T12:17:38.476Z,3.22
2022-10-09T12:20:20.174Z,2.15
2022-10-09T12:25:56.205Z,2.00
2022-10-09T12:28:31.861Z,2.92
2022-10-09T12:31:04.755Z,3.72
2022-10-09T12:33:49.360Z,1.50
2022-10-09T12:36:25.310Z,3.03
2022-10-09T12:38:55.352Z,4.38
2022-10-09T12:41:28.948Z,4.63
2022-10-09T12:43:59.407Z,3.33
2022-10-09T12:46:31.521Z,3.70
2022-10-09T12:49:01.672Z,2.15
2022-10-09T12:51:33.246Z,1.00
2022-10-09T12:54:11.537Z,2.50
2022-10-09T12:56:42.385Z,2.10
2022-10-09T12:59:14.070Z,3.67
2022-10-09T13:01:44.512Z,5.63
2022-10-09T13:04:31.050Z,3.13
2022-10-09T13:07:03.194Z,2.00
2022-10-09T13:09:41.367Z,3.83
2022-10-09T13:12:17.981Z,3.10
2022-10-09T13:17:39.720Z,4.63
2022-10-09T13:20:26.265Z,5.35
2022-10-09T13:22:57.949Z,2.08
2022-10-09T13:25:52.809Z,4.65
2022-10-09T13:28:22.173Z,3.60
2022-10-09T13:33:46.136Z,3.67
2022-10-09T13:36:18.767Z,2.55
2022-10-09T13:38:48.659Z,2.47
2022-10-09T13:41:24.493Z,3.92
2022-10-09T13:43:54.926Z,2.27
2022-10-09T13:46:26.110Z,3.03
2022-10-09T13:48:54.322Z,1.25
2022-10-09T13:51:22.487Z,2.70
2022-10-09T13:53:51.709Z,1.65
2022-10-09T13:56:21.357Z,2.20
2022-10-09T13:58:49.717Z,2.55
2022-10-09T14:01:22.742Z,2.45
2022-10-09T14:03:51.268Z,2.38
2022-10-09T14:06:26.062Z,2.58
2022-10-09T14:09:14.638Z,2.17
2022-10-09T14:11:49.185Z,3.45
2022-10-09T14:14:17.624Z,0.95
2022-10-09T14:16:45.899Z,7.55
2022-10-09T14:19:14.106Z,1.38
2022-10-09T14:21:42.410Z,1.20
2022-10-09T14:24:11.492Z,3.90
2022-10-09T14:26:42.057Z,4.88
2022-10-09T14:29:12.471Z,3.80
2022-10-09T14:31:40.689Z,2.28
2022-10-09T14:34:09.024Z,1.33
2022-10-09T14:36:38.066Z,3.70
2022-10-09T14:39:06.258Z,2.35
2022-10-09T14:41:37.783Z,4.93
2022-10-09T14:44:07.251Z,3.42
2022-10-09T14:46:42.228Z,2.30
2022-10-09T14:49:12.286Z,4.93
2022-10-09T14:51:41.847Z,4.32
2022-10-09T14:54:13.229Z,1.95
2022-10-09T14:56:41.909Z,2.88
2022-10-09T14:59:15.490Z,0.43
2022-10-09T15:01:46.068Z,1.65
2022-10-09T15:04:15.432Z,3.28
2022-10-09T15:06:43.847Z,2.63
2022-10-09T15:09:14.929Z,1.63
2022-10-09T15:11:43.164Z,1.45
2022-10-09T15:14:11.841Z,3.25
2022-10-09T15:16:40.049Z,2.13
2022-10-09T15:19:09.996Z,2.92
2022-10-09T15:21:40.198Z,3.92
2022-10-09T15:24:11.663Z,1.90
2022-10-09T15:26:39.920Z,2.78
2022-10-09T15:29:11.513Z,2.53
2022-10-09T15:31:42.885Z,2.45
2022-10-09T15:34:19.795Z,3.70
2022-10-09T15:36:50.961Z,2.92
2022-10-09T15:39:19.245Z,1.15
2022-10-09T15:41:51.304Z,3.70
2022-10-09T15:44:23.847Z,3.75
2022-10-09T15:46:56.640Z,3.22
2022-10-09T15:49:26.524Z,4.05
2022-10-09T15:51:54.765Z,3.72
2022-10-09T15:54:23.907Z,3.50
2022-10-09T15:56:52.117Z,2.70
2022-10-09T15:59:20.565Z,6.68
2022-10-09T16:01:50.534Z,6.68
2022-10-09T16:04:19.161Z,5.75
2022-10-09T16:06:48.969Z,5.47
2022-10-09T16:09:17.326Z,2.58
2022-10-09T16:11:45.508Z,4.25
2022-10-09T16:14:13.600Z,2.33
2022-10-09T16:16:42.012Z,5.80
2022-10-09T16:19:10.081Z,4.68
2022-10-09T16:21:38.275Z,2.83
2022-10-09T16:24:07.948Z,5.38
2022-10-09T16:26:36.159Z,8.85
2022-10-09T16:29:04.825Z,5.35
2022-10-09T16:31:35.798Z,6.45
2022-10-09T16:34:05.751Z,3.33
2022-10-09T16:36:35.693Z,2.10
2022-10-09T16:39:04.182Z,5.53
2022-10-09T16:41:40.985Z,13.07
2022-10-09T16:44:17.001Z,2.65
2022-10-09T16:46:45.763Z,7.22
2022-10-09T16:49:21.326Z,2.97
2022-10-09T16:51:52.781Z,4.05
2022-10-09T16:54:21.627Z,4.43
2022-10-09T16:56:53.228Z,2.05
2022-10-09T16:59:22.145Z,3.85
2022-10-09T17:01:50.574Z,2.38
2022-10-09T17:04:18.962Z,7.05
2022-10-09T17:06:47.702Z,5.00
2022-10-09T17:09:17.651Z,3.50
2022-10-09T17:11:46.847Z,4.25
2022-10-09T17:14:17.199Z,3.15
2022-10-09T17:16:45.984Z,3.25
2022-10-09T17:19:16.042Z,11.35
2022-10-09T17:21:44.786Z,3.95
2022-10-09T17:24:16.266Z,4.40
2022-10-09T17:26:44.714Z,2.53
2022-10-09T17:29:16.030Z,3.78
2022-10-09T17:31:44.391Z,5.00
2022-10-09T17:34:24.970Z,4.05
2022-10-09T17:36:55.037Z,5.85
2022-10-09T17:39:24.699Z,28.33
2022-10-09T17:41:52.942Z,7.45
2022-10-09T17:44:23.536Z,2.15
2022-10-09T17:46:51.923Z,7.65
2022-10-09T17:49:20.594Z,5.28
2022-10-09T17:51:48.967Z,4.00
2022-10-09T17:54:18.831Z,22.20
2022-10-09T18:00:02.629Z,22.33
2022-10-09T18:02:31.222Z,17.25
2022-10-09T18:04:59.872Z,13.07
2022-10-09T18:07:28.174Z,27.77
2022-10-09T18:09:56.510Z,23.17
2022-10-09T18:12:24.840Z,17.13
2022-10-09T18:14:53.524Z,10.05
2022-10-09T18:17:26.057Z,21.35
2022-10-09T18:19:54.545Z,10.27
2022-10-09T18:22:22.840Z,11.68
2022-10-09T18:24:51.575Z,7.22
2022-10-09T19:07:52.690Z,6.55
2022-10-09T19:37:15.332Z,7.85
2022-10-09T19:39:48.583Z,8.82
2022-10-09T19:42:18.127Z,8.55
2022-10-09T19:44:47.996Z,13.20
2022-10-09T19:47:19.003Z,11.40
2022-10-09T19:49:47.760Z,11.48
2022-10-09T19:52:17.910Z,8.85
2022-10-09T19:54:49.222Z,10.60
2022-10-09T19:57:20.287Z,6.53
2022-10-09T19:59:49.467Z,7.57
2022-10-09T20:02:17.693Z,9.40
2022-10-09T20:04:56.574Z,20.92
2022-10-09T20:07:29.040Z,15.40
2022-10-09T20:09:57.437Z,22.67
2022-10-09T20:12:27.677Z,22.33
2022-10-09T20:14:56.582Z,21.17
2022-10-09T20:21:43.790Z,15.40
2022-10-09T20:24:13.490Z,13.35
2022-10-09T20:26:43.247Z,10.90
2022-10-09T20:29:21.379Z,8.00
2022-10-09T20:31:49.977Z,15.50
2022-10-09T20:37:12.141Z,10.80
2022-10-09T20:39:42.264Z,8.10
2022-10-09T20:42:11.052Z,13.43
2022-10-09T20:44:49.692Z,9.50
2022-10-09T20:47:18.286Z,14.80
2022-10-09T20:49:52.506Z,14.35
2022-10-09T20:52:20.939Z,16.83
2022-10-09T20:55:10.227Z,11.25
2022-10-09T20:57:38.616Z,15.27
2022-10-09T21:00:11.571Z,10.52
2022-10-09T21:02:51.140Z,11.88
2022-10-09T21:05:19.735Z,9.48
2022-10-09T21:07:48.177Z,10.30
2022-10-09T21:10:18.776Z,11.48
2022-10-09T21:12:47.456Z,11.73
2022-10-09T21:15:19.025Z,12.05
2022-10-09T21:17:48.093Z,10.98
2022-10-09T21:20:17.774Z,16.02
2022-10-09T21:22:51.014Z,18.92
2022-10-09T21:25:27.686Z,18.50
2022-10-09T21:27:56.841Z,17.52
2022-10-09T21:30:25.215Z,18.48
2022-10-09T21:32:53.752Z,15.32
2022-10-09T21:35:22.478Z,14.00
2022-10-09T21:38:06.153Z,19.75
2022-10-09T21:40:49.515Z,16.83
2022-10-09T21:43:20.648Z,11.98
2022-10-09T21:45:53.633Z,26.65
2022-10-09T21:48:25.064Z,17.30
2022-10-09T21:51:00.590Z,16.70
2022-10-09T21:53:29.602Z,20.73
2022-10-09T21:55:59.549Z,17.80
2022-10-09T21:58:27.803Z,12.65
2022-10-09T22:01:01.226Z,15.02
2022-10-09T22:03:32.699Z,25.63
2022-10-09T22:06:01.631Z,18.25
2022-10-09T22:08:29.847Z,14.23
2022-10-09T22:10:59.503Z,12.73
2022-10-09T22:13:27.907Z,12.20
2022-10-09T22:21:42.066Z,9.23
2022-10-09T22:24:10.903Z,15.02
2022-10-09T22:26:40.767Z,11.20
2022-10-09T22:29:09.121Z,8.95
2022-10-09T22:31:37.213Z,13.00
2022-10-09T22:34:05.619Z,11.20
2022-10-09T22:36:35.581Z,10.90
2022-10-09T22:39:07.728Z,17.42
2022-10-09T22:41:38.024Z,11.70
2022-10-09T22:44:10.099Z,10.30
2022-10-09T22:46:42.177Z,11.63
2022-10-09T22:49:14.505Z,14.07
2022-10-09T22:51:43.292Z,17.40
2022-10-09T22:54:13.508Z,10.88
2022-10-09T22:56:44.359Z,9.30
2022-10-09T22:59:17.944Z,16.38
2022-10-09T23:01:50.129Z,19.73
2022-10-09T23:04:20.221Z,13.00
2022-10-09T23:06:53.927Z,10.50
2022-10-09T23:09:23.759Z,12.23
2022-10-09T23:11:52.313Z,11.00
2022-10-09T23:14:22.168Z,9.52
2022-10-09T23:16:50.583Z,12.38
2022-10-09T23:19:19.695Z,15.13
2022-10-09T23:21:48.267Z,15.98
2022-10-09T23:24:17.941Z,23.95
2022-10-09T23:26:48.013Z,15.80
2022-10-09T23:29:20.867Z,9.45
2022-10-09T23:31:53.694Z,12.93
2022-10-09T23:34:21.919Z,11.23
2022-10-09T23:36:50.091Z,16.63
2022-10-09T23:39:18.373Z,12.98
2022-10-09T23:41:46.509Z,15.55
2022-10-09T23:44:17.740Z,13.80
2022-10-09T23:46:49.536Z,17.35
2022-10-09T23:49:17.755Z,15.48
2022-10-09T23:51:45.874Z,26.15
2022-10-09T23:54:13.952Z,11.80
2022-10-09T23:56:42.699Z,18.05
2022-10-09T23:59:13.167Z,15.88
